Portada
METAR-TAF:

METAR-TAF

Aeroports :

Joplin Regional Airport

Joplin, Missouri, Estats Units d'Amèrica

latitud: 37-09-22N, longitud: 094-30-02W, altitud: 299 m

Observació

L'informe es va fer fa 54 minuts, a les 04:53 UTC
Vent 13 kt del Sud/Sud-Oest
Temperatura 29°C
Humitat 62%
Pressió 1012 hPa
Visibilitat: 16.1 km
Cel clar

METAR: KJLN 230453Z AUTO 20013KT 10SM CLR 29/21 A2989 RMK AO2 SLP108 T02890206

Hora: 00:47 (05:47 UTC)

Pronòstic

L'informe es va fer fa 27 minuts, a les 05:20 UTC
Pronòstic vàlid del 23 a les 06 UTC al 24 a les 06 UTC
Vent 16 kt del Sud amb ràfegues de 22 kt
Visibilitat: 10 km
Cel clar
A partir de les 23 a les 0800 UTC
Vent 9 kt del Sud-Oest
Visibilitat: 10 km
Núvols disperses a una alçada de 21000 ft

TAF: KJLN 230520Z 2306/2406 19016G22KT P6SM SKC FM230800 22009KT P6SM SCT210

Observacions i pronòstics meteorològics de més de 4000 aeroports (METAR i TAF).

Les estacions disponibles són els punts grocs i vermells al mapa.

Posi el ratolí al punt desitjat per veure el nom de l'estació.

Feu clic per veure les observacions i els pronòstics meteorològics.

Per canviar el mapa: feu clic els botons verds amb una creu de color negre per apropar; al botó verd amb un guió per allunyar la imatge; o en les fletxes verdes per a mapes adjacents.


METAR-TAF: